Zaliv Amerika — C4ZR2 — position and weather

sailwx.info

Track history (hours):
 
Tides and Currents Weather Stations Pressure Air Temp Water Temp Dewpoint Dewpoint Depression Visibility Wind Speed Wind Dir Waves Ship Positions

Zaliv Amerika

Last reported at 2014-Jun-24 18:30 UTC. Time now 2014-Jul-23 05:50 UTC.
Position N 48°31' W 126°30'.
Warning: this ship's position is 28 days out of date.

Length 244 m; draft 13 m.

Type: Tanker. MMSI: 210435000.

Date/timePositionNaut miles runAvg speedWind from/ knotsBaromVisibWave heightAir tempDewpointWater temp
2014-Jun-24 18:30N 48°31' W 126°30'1111.5
2014-Jun-24 17:34N 48°31' W 126°13'1111.4
2014-Jun-24 16:34N 48°31' W 125°56'1111.4
2014-Jun-24 15:34N 48°31' W 125°39'1111.4
2014-Jun-24 14:33N 48°31' W 125°22'1211.9
2014-Jun-24 13:34N 48°31' W 125°04'1212.4
2014-Jun-24 12:34N 48°31' W 124°45'1313.1
2014-Jun-24 11:33N 48°26' W 124°27'1413.7
2014-Jun-24 10:33N 48°21' W 124°08'1313.3
2014-Jun-24 09:33N 48°17' W 123°49'1212.1
2014-Jun-24 08:33N 48°16' W 123°30'1010.0
2014-Jun-24 07:33N 48°23' W 123°20'8 8.1
2014-Jun-24 06:33N 48°29' W 123°13'1111.0
2014-Jun-24 05:33N 48°40' W 123°15'10 9.9
2014-Jun-24 04:33N 48°46' W 123°03'1110.7
2014-Jun-24 03:33N 48°56' W 123°11'1413.8
2014-Jun-24 02:34N 49°07' W 123°23'1413.5
2014-Jun-24 01:34N 49°19' W 123°15'7 6.8
2014-Jun-24 00:34N 49°18' W 123°05'4 4.5
2014-Jun-23 23:34N 49°18' W 122°58'1 1.3
2014-Jun-23 22:33N 49°18' W 122°56'0 0.0
2014-Jun-23 21:29N 49°18' W 122°56'0 0.0
2014-Jun-23 20:32N 49°18' W 122°56'0 0.0
2014-Jun-23 19:28N 49°18' W 122°56'0 0.0
2014-Jun-23 18:28N 49°18' W 122°56'0 0.0
2014-Jun-23 17:28N 49°18' W 122°56'0 0.0
2014-Jun-23 16:33N 49°18' W 122°56'0 0.0
2014-Jun-23 15:33N 49°18' W 122°56'0 0.0
2014-Jun-23 14:32N 49°18' W 122°56'0 0.0
2014-Jun-23 12:31N 49°18' W 122°56'0 0.0
2014-Jun-23 11:31N 49°18' W 122°56'0 0.0
2014-Jun-23 10:31N 49°18' W 122°56'0 0.0
2014-Jun-23 09:33N 49°18' W 122°56'0 0.0
2014-Jun-23 08:33N 49°18' W 122°56'0 0.0
2014-Jun-23 07:32N 49°18' W 122°56'0 0.0
2014-Jun-23 06:32N 49°18' W 122°56'0 0.0
2014-Jun-23 05:31N 49°18' W 122°56'0 0.0
2014-Jun-23 04:28N 49°18' W 122°56'0 0.0
2014-Jun-23 03:31N 49°18' W 122°56'0 0.0
2014-Jun-23 02:33N 49°18' W 122°56'0 0.0
2014-Jun-23 01:33N 49°18' W 122°56'1 0.8
2014-Jun-23 00:32N 49°17' W 122°57'0 0.0
2014-Jun-21 16:28N 49°17' W 122°57'0 0.0
2014-Jun-21 15:33N 49°17' W 122°57'0 0.0
2014-Jun-21 14:33N 49°17' W 122°57'1 0.8
2014-Jun-21 13:32N 49°18' W 122°56'0 0.0
2014-Jun-21 12:31N 49°18' W 122°56'0 0.0
2014-Jun-21 11:31N 49°18' W 122°56'0 0.0
2014-Jun-21 10:31N 49°18' W 122°56'0 0.0
2014-Jun-21 09:33N 49°18' W 122°56'0 0.0
2014-Jun-21 08:33N 49°18' W 122°56'0 0.0
2014-Jun-21 07:32N 49°18' W 122°56'0 0.0
2014-Jun-21 06:32N 49°18' W 122°56'0 0.0
2014-Jun-21 05:31N 49°18' W 122°56'0 0.0
2014-Jun-21 04:31N 49°18' W 122°56'0 0.0
2014-Jun-21 03:31N 49°18' W 122°56'0 0.0
2014-Jun-21 02:33N 49°18' W 122°56'0 0.0
2014-Jun-21 01:33N 49°18' W 122°56'0 0.0
2014-Jun-21 00:32N 49°18' W 122°56'0 0.0
2014-Jun-20 23:32N 49°18' W 122°56'0 0.0
2014-Jun-20 22:31N 49°18' W 122°56'0 0.0
2014-Jun-20 21:31N 49°18' W 122°56'0 0.0
2014-Jun-20 20:31N 49°18' W 122°56'0 0.0
2014-Jun-20 19:33N 49°18' W 122°56'0 0.0
2014-Jun-20 18:33N 49°18' W 122°56'0 0.0
2014-Jun-20 17:32N 49°18' W 122°56'0 0.0
2014-Jun-20 16:32N 49°18' W 122°56'0 0.0
2014-Jun-20 15:31N 49°18' W 122°56'0 0.0
2014-Jun-20 14:31N 49°18' W 122°56'0 0.0
2014-Jun-20 13:34N 49°18' W 122°56'0 0.0
2014-Jun-20 12:27N 49°18' W 122°56'0 0.0
2014-Jun-20 11:30N 49°18' W 122°56'0 0.0
2014-Jun-20 10:32N 49°18' W 122°56'0 0.0
2014-Jun-20 09:32N 49°18' W 122°56'0 0.0
2014-Jun-20 08:31N 49°18' W 122°56'0 0.0
2014-Jun-20 07:31N 49°18' W 122°56'0 0.0
2014-Jun-20 06:33N 49°18' W 122°56'0 0.0
2014-Jun-20 05:27N 49°18' W 122°56'0 0.0
2014-Jun-20 04:30N 49°18' W 122°56'0 0.0
2014-Jun-20 03:32N 49°18' W 122°56'0 0.0
2014-Jun-20 02:32N 49°18' W 122°56'0 0.0
2014-Jun-20 01:31N 49°18' W 122°56'0 0.0
2014-Jun-20 00:31N 49°18' W 122°56'0 0.0
2014-Jun-19 23:33N 49°18' W 122°56'0 0.0
2014-Jun-19 22:33N 49°18' W 122°56'0 0.0
2014-Jun-19 21:33N 49°18' W 122°56'0 0.0
2014-Jun-19 20:32N 49°18' W 122°56'0 0.0
2014-Jun-19 19:32N 49°18' W 122°56'0 0.0
2014-Jun-19 18:31N 49°18' W 122°56'0 0.0
2014-Jun-19 17:31N 49°18' W 122°56'0 0.0
2014-Jun-19 16:33N 49°18' W 122°56'0 0.0
2014-Jun-19 15:33N 49°18' W 122°56'0 0.0
2014-Jun-19 14:33N 49°18' W 122°56'0 0.0
2014-Jun-19 13:32N 49°18' W 122°56'0 0.0
2014-Jun-19 12:32N 49°18' W 122°56'0 0.0
2014-Jun-19 11:31N 49°18' W 122°56'0 0.0
2014-Jun-19 10:31N 49°18' W 122°56'0 0.0
2014-Jun-19 09:30N 49°18' W 122°56'0 0.0
2014-Jun-19 08:33N 49°18' W 122°56'0 0.0
2014-Jun-19 07:30N 49°18' W 122°56'0 0.0
2014-Jun-19 06:32N 49°18' W 122°56'0 0.0
2014-Jun-19 05:32N 49°18' W 122°56'0 0.0
2014-Jun-19 04:31N 49°18' W 122°56'0 0.0
2014-Jun-19 03:31N 49°18' W 122°56'0 0.0
2014-Jun-19 02:30N 49°18' W 122°56'0 0.0
2014-Jun-19 01:33N 49°18' W 122°56'1 1.0
2014-Jun-19 00:33N 49°18' W 122°58'4 4.2
2014-Jun-18 23:32N 49°18' W 123°04'0 0.1
2014-Jun-18 22:31N 49°18' W 123°04'0 0.0
2014-Jun-18 21:31N 49°18' W 123°04'0 0.0
2014-Jun-18 20:33N 49°18' W 123°04'0 0.0
2014-Jun-18 19:33N 49°18' W 123°04'0 0.0
2014-Jun-18 18:32N 49°18' W 123°04'0 0.0
2014-Jun-18 17:32N 49°18' W 123°04'0 0.0
2014-Jun-18 16:31N 49°18' W 123°04'0 0.0
2014-Jun-18 15:28N 49°18' W 123°04'0 0.0
2014-Jun-18 14:28N 49°18' W 123°04'0 0.0
2014-Jun-18 13:33N 49°18' W 123°04'0 0.0
2014-Jun-18 12:33N 49°18' W 123°04'0 0.0
2014-Jun-18 11:32N 49°18' W 123°04'0 0.0
2014-Jun-18 10:33N 49°18' W 123°04'0 0.0
2014-Jun-18 09:33N 49°18' W 123°04'0 0.0
2014-Jun-18 08:33N 49°18' W 123°04'0 0.0
2014-Jun-18 07:33N 49°18' W 123°04'0 0.0
2014-Jun-18 06:33N 49°18' W 123°04'0 0.0
2014-Jun-18 05:33N 49°18' W 123°04'0 0.0
2014-Jun-18 04:33N 49°18' W 123°04'0 0.0
2014-Jun-18 03:33N 49°18' W 123°04'0 0.0
2014-Jun-18 02:33N 49°18' W 123°04'0 0.0
2014-Jun-18 01:33N 49°18' W 123°04'0 0.0
2014-Jun-18 00:33N 49°18' W 123°04'0 0.0
2014-Jun-17 23:33N 49°18' W 123°04'0 0.0
2014-Jun-17 22:33N 49°18' W 123°04'0 0.1
2014-Jun-17 21:33N 49°18' W 123°04'9 9.5
2014-Jun-17 20:33N 49°16' W 123°18'1413.9
2014-Jun-17 19:34N 49°02' W 123°17'1414.0
2014-Jun-17 18:33N 48°52' W 123°02'1110.7
2014-Jun-17 17:33N 48°43' W 123°11'1212.0
2014-Jun-17 16:33N 48°31' W 123°11'1111.5
2014-Jun-17 15:33N 48°22' W 123°22'6 6.1
2014-Jun-17 14:31N 48°16' W 123°26'8 8.7
2014-Jun-17 13:33N 48°14' W 123°38'1010.1
2014-Jun-17 12:33N 48°14' W 123°53'9 9.2
2014-Jun-17 11:33N 48°17' W 124°06'10 9.7
2014-Jun-17 10:33N 48°21' W 124°19'10 9.7
2014-Jun-17 09:33N 48°25' W 124°33'9 8.9
2014-Jun-17 08:33N 48°29' W 124°45'9 9.3
2014-Jun-17 07:33N 48°28' W 124°59'7 6.6
2014-Jun-17 06:29N 48°28' W 125°10'7 6.6
2014-Jun-17 05:27N 48°28' W 125°20'7 7.6
2014-Jun-17 04:29N 48°27' W 125°31'5 5.6
2014-Jun-17 03:33N 48°27' W 125°39'1010.0
2014-Jun-17 02:33N 48°29' W 125°54'2110.2
2014-Jun-17 00:31N 48°32' W 126°25'1010.1
2014-Jun-16 23:30N 48°33' W 126°40'  
Track history (hours):
 
Tides and Currents Weather Stations Pressure Air Temp Water Temp Dewpoint Dewpoint Depression Visibility Wind Speed Wind Dir Waves Ship Positions

Zaliv Amerika

Last reported at 2014-Jun-24 18:30 UTC. Time now 2014-Jul-23 05:50 UTC.
Position N 48°31' W 126°30'.
Warning: this ship's position is 28 days out of date.

Length 244 m; draft 13 m.

Type: Tanker. MMSI: 210435000.

Date/timePositionNaut miles runAvg speedWind from/ knotsBaromVisibWave heightAir tempDewpointWater temp
2014-Jun-24 18:30N 48°31' W 126°30'1111.5
2014-Jun-24 17:34N 48°31' W 126°13'1111.4
2014-Jun-24 16:34N 48°31' W 125°56'1111.4
2014-Jun-24 15:34N 48°31' W 125°39'1111.4
2014-Jun-24 14:33N 48°31' W 125°22'1211.9
2014-Jun-24 13:34N 48°31' W 125°04'1212.4
2014-Jun-24 12:34N 48°31' W 124°45'1313.1
2014-Jun-24 11:33N 48°26' W 124°27'1413.7
2014-Jun-24 10:33N 48°21' W 124°08'1313.3
2014-Jun-24 09:33N 48°17' W 123°49'1212.1
2014-Jun-24 08:33N 48°16' W 123°30'1010.0
2014-Jun-24 07:33N 48°23' W 123°20'8 8.1
2014-Jun-24 06:33N 48°29' W 123°13'1111.0
2014-Jun-24 05:33N 48°40' W 123°15'10 9.9
2014-Jun-24 04:33N 48°46' W 123°03'1110.7
2014-Jun-24 03:33N 48°56' W 123°11'1413.8
2014-Jun-24 02:34N 49°07' W 123°23'1413.5
2014-Jun-24 01:34N 49°19' W 123°15'7 6.8
2014-Jun-24 00:34N 49°18' W 123°05'4 4.5
2014-Jun-23 23:34N 49°18' W 122°58'1 1.3
2014-Jun-23 22:33N 49°18' W 122°56'0 0.0
2014-Jun-23 21:29N 49°18' W 122°56'0 0.0
2014-Jun-23 20:32N 49°18' W 122°56'0 0.0
2014-Jun-23 19:28N 49°18' W 122°56'0 0.0
2014-Jun-23 18:28N 49°18' W 122°56'0 0.0
2014-Jun-23 17:28N 49°18' W 122°56'0 0.0
2014-Jun-23 16:33N 49°18' W 122°56'0 0.0
2014-Jun-23 15:33N 49°18' W 122°56'0 0.0
2014-Jun-23 14:32N 49°18' W 122°56'0 0.0
2014-Jun-23 12:31N 49°18' W 122°56'0 0.0
2014-Jun-23 11:31N 49°18' W 122°56'0 0.0
2014-Jun-23 10:31N 49°18' W 122°56'0 0.0
2014-Jun-23 09:33N 49°18' W 122°56'0 0.0
2014-Jun-23 08:33N 49°18' W 122°56'0 0.0
2014-Jun-23 07:32N 49°18' W 122°56'0 0.0
2014-Jun-23 06:32N 49°18' W 122°56'0 0.0
2014-Jun-23 05:31N 49°18' W 122°56'0 0.0
2014-Jun-23 04:28N 49°18' W 122°56'0 0.0
2014-Jun-23 03:31N 49°18' W 122°56'0 0.0
2014-Jun-23 02:33N 49°18' W 122°56'0 0.0
2014-Jun-23 01:33N 49°18' W 122°56'1 0.8
2014-Jun-23 00:32N 49°17' W 122°57'0 0.0
2014-Jun-21 16:28N 49°17' W 122°57'0 0.0
2014-Jun-21 15:33N 49°17' W 122°57'0 0.0
2014-Jun-21 14:33N 49°17' W 122°57'1 0.8
2014-Jun-21 13:32N 49°18' W 122°56'0 0.0
2014-Jun-21 12:31N 49°18' W 122°56'0 0.0
2014-Jun-21 11:31N 49°18' W 122°56'0 0.0
2014-Jun-21 10:31N 49°18' W 122°56'0 0.0
2014-Jun-21 09:33N 49°18' W 122°56'0 0.0
2014-Jun-21 08:33N 49°18' W 122°56'0 0.0
2014-Jun-21 07:32N 49°18' W 122°56'0 0.0
2014-Jun-21 06:32N 49°18' W 122°56'0 0.0
2014-Jun-21 05:31N 49°18' W 122°56'0 0.0
2014-Jun-21 04:31N 49°18' W 122°56'0 0.0
2014-Jun-21 03:31N 49°18' W 122°56'0 0.0
2014-Jun-21 02:33N 49°18' W 122°56'0 0.0
2014-Jun-21 01:33N 49°18' W 122°56'0 0.0
2014-Jun-21 00:32N 49°18' W 122°56'0 0.0
2014-Jun-20 23:32N 49°18' W 122°56'0 0.0
2014-Jun-20 22:31N 49°18' W 122°56'0 0.0
2014-Jun-20 21:31N 49°18' W 122°56'0 0.0
2014-Jun-20 20:31N 49°18' W 122°56'0 0.0
2014-Jun-20 19:33N 49°18' W 122°56'0 0.0
2014-Jun-20 18:33N 49°18' W 122°56'0 0.0
2014-Jun-20 17:32N 49°18' W 122°56'0 0.0
2014-Jun-20 16:32N 49°18' W 122°56'0 0.0
2014-Jun-20 15:31N 49°18' W 122°56'0 0.0
2014-Jun-20 14:31N 49°18' W 122°56'0 0.0
2014-Jun-20 13:34N 49°18' W 122°56'0 0.0
2014-Jun-20 12:27N 49°18' W 122°56'0 0.0
2014-Jun-20 11:30N 49°18' W 122°56'0 0.0
2014-Jun-20 10:32N 49°18' W 122°56'0 0.0
2014-Jun-20 09:32N 49°18' W 122°56'0 0.0
2014-Jun-20 08:31N 49°18' W 122°56'0 0.0
2014-Jun-20 07:31N 49°18' W 122°56'0 0.0
2014-Jun-20 06:33N 49°18' W 122°56'0 0.0
2014-Jun-20 05:27N 49°18' W 122°56'0 0.0
2014-Jun-20 04:30N 49°18' W 122°56'0 0.0
2014-Jun-20 03:32N 49°18' W 122°56'0 0.0
2014-Jun-20 02:32N 49°18' W 122°56'0 0.0
2014-Jun-20 01:31N 49°18' W 122°56'0 0.0
2014-Jun-20 00:31N 49°18' W 122°56'0 0.0
2014-Jun-19 23:33N 49°18' W 122°56'0 0.0
2014-Jun-19 22:33N 49°18' W 122°56'0 0.0
2014-Jun-19 21:33N 49°18' W 122°56'0 0.0
2014-Jun-19 20:32N 49°18' W 122°56'0 0.0
2014-Jun-19 19:32N 49°18' W 122°56'0 0.0
2014-Jun-19 18:31N 49°18' W 122°56'0 0.0
2014-Jun-19 17:31N 49°18' W 122°56'0 0.0
2014-Jun-19 16:33N 49°18' W 122°56'0 0.0
2014-Jun-19 15:33N 49°18' W 122°56'0 0.0
2014-Jun-19 14:33N 49°18' W 122°56'0 0.0
2014-Jun-19 13:32N 49°18' W 122°56'0 0.0
2014-Jun-19 12:32N 49°18' W 122°56'0 0.0
2014-Jun-19 11:31N 49°18' W 122°56'0 0.0
2014-Jun-19 10:31N 49°18' W 122°56'0 0.0
2014-Jun-19 09:30N 49°18' W 122°56'0 0.0
2014-Jun-19 08:33N 49°18' W 122°56'0 0.0
2014-Jun-19 07:30N 49°18' W 122°56'0 0.0
2014-Jun-19 06:32N 49°18' W 122°56'0 0.0
2014-Jun-19 05:32N 49°18' W 122°56'0 0.0
2014-Jun-19 04:31N 49°18' W 122°56'0 0.0
2014-Jun-19 03:31N 49°18' W 122°56'0 0.0
2014-Jun-19 02:30N 49°18' W 122°56'0 0.0
2014-Jun-19 01:33N 49°18' W 122°56'1 1.0
2014-Jun-19 00:33N 49°18' W 122°58'4 4.2
2014-Jun-18 23:32N 49°18' W 123°04'0 0.1
2014-Jun-18 22:31N 49°18' W 123°04'0 0.0
2014-Jun-18 21:31N 49°18' W 123°04'0 0.0
2014-Jun-18 20:33N 49°18' W 123°04'0 0.0
2014-Jun-18 19:33N 49°18' W 123°04'0 0.0
2014-Jun-18 18:32N 49°18' W 123°04'0 0.0
2014-Jun-18 17:32N 49°18' W 123°04'0 0.0
2014-Jun-18 16:31N 49°18' W 123°04'0 0.0
2014-Jun-18 15:28N 49°18' W 123°04'0 0.0
2014-Jun-18 14:28N 49°18' W 123°04'0 0.0
2014-Jun-18 13:33N 49°18' W 123°04'0 0.0
2014-Jun-18 12:33N 49°18' W 123°04'0 0.0
2014-Jun-18 11:32N 49°18' W 123°04'0 0.0
2014-Jun-18 10:33N 49°18' W 123°04'0 0.0
2014-Jun-18 09:33N 49°18' W 123°04'0 0.0
2014-Jun-18 08:33N 49°18' W 123°04'0 0.0
2014-Jun-18 07:33N 49°18' W 123°04'0 0.0
2014-Jun-18 06:33N 49°18' W 123°04'0 0.0
2014-Jun-18 05:33N 49°18' W 123°04'0 0.0
2014-Jun-18 04:33N 49°18' W 123°04'0 0.0
2014-Jun-18 03:33N 49°18' W 123°04'0 0.0
2014-Jun-18 02:33N 49°18' W 123°04'0 0.0
2014-Jun-18 01:33N 49°18' W 123°04'0 0.0
2014-Jun-18 00:33N 49°18' W 123°04'0 0.0
2014-Jun-17 23:33N 49°18' W 123°04'0 0.0
2014-Jun-17 22:33N 49°18' W 123°04'0 0.1
2014-Jun-17 21:33N 49°18' W 123°04'9 9.5
2014-Jun-17 20:33N 49°16' W 123°18'1413.9
2014-Jun-17 19:34N 49°02' W 123°17'1414.0
2014-Jun-17 18:33N 48°52' W 123°02'1110.7
2014-Jun-17 17:33N 48°43' W 123°11'1212.0
2014-Jun-17 16:33N 48°31' W 123°11'1111.5
2014-Jun-17 15:33N 48°22' W 123°22'6 6.1
2014-Jun-17 14:31N 48°16' W 123°26'8 8.7
2014-Jun-17 13:33N 48°14' W 123°38'1010.1
2014-Jun-17 12:33N 48°14' W 123°53'9 9.2
2014-Jun-17 11:33N 48°17' W 124°06'10 9.7
2014-Jun-17 10:33N 48°21' W 124°19'10 9.7
2014-Jun-17 09:33N 48°25' W 124°33'9 8.9
2014-Jun-17 08:33N 48°29' W 124°45'9 9.3
2014-Jun-17 07:33N 48°28' W 124°59'7 6.6
2014-Jun-17 06:29N 48°28' W 125°10'7 6.6
2014-Jun-17 05:27N 48°28' W 125°20'7 7.6
2014-Jun-17 04:29N 48°27' W 125°31'5 5.6
2014-Jun-17 03:33N 48°27' W 125°39'1010.0
2014-Jun-17 02:33N 48°29' W 125°54'2110.2
2014-Jun-17 00:31N 48°32' W 126°25'1010.1
2014-Jun-16 23:30N 48°33' W 126°40'  

Dump ship's entire track history